Arlington, WA

3:05 PM PST on December 17, 2014 (GMT -0800)
Snohomish County | Change Station
CLOSE
Current Station
Airport
Location: Everett,
Elevation: 604 ft
Nearby Weather Stations

Elev 604 ft 47.91 °N, 122.28 °W | Updated 12 minutes ago

Overcast
Overcast
47 °F
Feels Like 47 °F
N
6
Wind Variable Wind from ESE

Today
High -- | Low -- °F
--% Chance of Precip.
Yesterday
High -- | Low -- °F
Precip. -- in
7:53 AM 4:14 PM
Waning Crescent, 19% visible
Pressure 29.85 in
Visibility 10.0 miles
Clouds Scattered Clouds 4200 ft
Overcast 5000 ft
Dew Point 38 °F
Humidity 71%
Rainfall 0.07 in
Snow Depth Not available.
UV 0 out of 12
Pollen .30 out of 12
Air Quality Not available.
Flu Activity Not available.
METAR KPAE 172253Z 11005KT 10SM SCT042 OVC050 08/03 A2984 RMK AO2 SLP108 T00830033

More Conditions Fewer Conditions

Pressure 29.85 in
Visibility 10.0 miles
Clouds Scattered Clouds 4200 ft
Overcast 5000 ft
Dew Point 38 °F
Humidity 71%
Rainfall 0.07 in
Snow Depth Not available.
UV 0 out of 12
Pollen .30 out of 12
Air Quality Not available.
Flu Activity Not available.
METAR KPAE 172253Z 11005KT 10SM SCT042 OVC050 08/03 A2984 RMK AO2 SLP108 T00830033

More Conditions Fewer Conditions

10-Day Weather Forecast

Almanac

Astronomy

Dec. 17, 2014 Rise Set
Actual Time
Civil Twilight
Nautical Twilight
Astronomical Twilight
Moon
Length of Visible Light
Length of Day
Tomorrow will be .
, % of the Moon is Illuminated

Today's Extremes

State Highs State Lows

Community

WunderPhotos

Upload Photos

1,778,819 photos uploaded!

WunderBlogs® & News

Nearby

Air Quality

  Air Quality AQ Index Pollutant
Not available.

Snow Depth

Station Depth Elevation

Earthquake Activity

City Distance Mag. Time & Date
Minimum magnitude displayed is 2.5.

Coastal Water Temperatures

Place Temperature

Nearby Weather Stations